Luquillo, PR (00773)

3:57 AM AST on July 03, 2015 (GMT -0400)
Fajardo PR Weather Cafe | | Change Station
CLOSE
Current Station
Personal Weather Station
Location: Fajardo, FAJARDO
Elevation: 144 ft
Nearby Weather Stations

Elev 144 ft 18.32 °N, 65.66 °W | Updated 1 minute ago

Overcast
Overcast
82.1 °F
Feels Like 89 °F
N
4.0
Wind Variable Wind from ENE
Gusts 14.0 mph

Today
High -- | Low -- °F
--% Chance of Precip.
Yesterday
High -- | Low -- °F
Precip. -- in
5:50 AM 7:03 PM
Full, 98% visible
Pressure 30.07 in
Visibility 10.0 miles
Clouds Scattered Clouds 2600 ft
Mostly Cloudy 3200 ft
Overcast 6000 ft
Heat Index 89 °F
Dew Point 75 °F
Humidity 79%
Rainfall 0.00 in
Snow Depth Not available.
UV 0 out of 12
Pollen Not available.
Air Quality Not available.
Flu Activity Not available.
METAR TJNR 030753Z AUTO 07009KT 10SM SCT026 BKN032 OVC060 27/23 A3007 RMK AO2 SLP183 T02720228

More Conditions Fewer Conditions

Pressure 30.07 in
Visibility 10.0 miles
Clouds Scattered Clouds 2600 ft
Mostly Cloudy 3200 ft
Overcast 6000 ft
Heat Index 89 °F
Dew Point 75 °F
Humidity 79%
Rainfall 0.00 in
Snow Depth Not available.
UV 0 out of 12
Pollen Not available.
Air Quality Not available.
Flu Activity Not available.
METAR TJNR 030753Z AUTO 07009KT 10SM SCT026 BKN032 OVC060 27/23 A3007 RMK AO2 SLP183 T02720228

More Conditions Fewer Conditions

10-Day Weather Forecast

×

Almanac

Astronomy

Jul. 03, 2015 Rise Set
Actual Time
Civil Twilight
Nautical Twilight
Astronomical Twilight
Moon
Length of Visible Light
Length of Day
Tomorrow will be .
, % of the Moon is Illuminated

Today's Extremes

State Highs State Lows

Community

WunderPhotos

Upload Photos

1,834,634 photos uploaded!

WunderBlogs® & News

Nearby

Air Quality

  Air Quality AQ Index Pollutant
Not available.

Snow Depth

Station Depth Elevation

Earthquake Activity

City Distance Mag. Time & Date
Minimum magnitude displayed is 2.5.

Coastal Water Temperatures

Place Temperature

Stations

Nearby Weather Stations

Station Location Temp. Windchill Dew Point Humidity Wind Precip. Elev Updated Type